createdAt,value
2017-10-30T00:00:39.957Z,7.63
2017-10-30T00:03:07.370Z,8.30
2017-10-30T00:05:34.791Z,7.50
2017-10-30T00:08:02.190Z,9.17
2017-10-30T00:10:29.604Z,7.47
2017-10-30T00:12:57.067Z,8.50
2017-10-30T00:15:24.454Z,9.93
2017-10-30T00:17:52.633Z,8.00
2017-10-30T00:20:20.039Z,7.50
2017-10-30T00:22:47.450Z,7.60
2017-10-30T00:25:14.861Z,9.70
2017-10-30T00:27:42.318Z,8.83
2017-10-30T00:30:09.721Z,8.30
2017-10-30T00:32:37.895Z,8.50
2017-10-30T00:35:06.082Z,7.70
2017-10-30T00:37:34.254Z,8.10
2017-10-30T00:40:02.438Z,9.07
2017-10-30T00:42:30.622Z,8.83
2017-10-30T00:44:58.045Z,8.60
2017-10-30T00:47:44.155Z,8.27
2017-10-30T00:50:12.350Z,8.77
2017-10-30T00:52:39.766Z,7.97
2017-10-30T00:55:07.953Z,8.10
2017-10-30T00:57:36.125Z,8.63
2017-10-30T01:00:04.314Z,8.20
2017-10-30T01:02:32.485Z,10.57
2017-10-30T01:05:00.671Z,9.33
2017-10-30T01:07:28.079Z,9.27
2017-10-30T01:09:55.495Z,8.20
2017-10-30T01:12:22.897Z,8.70
2017-10-30T01:14:50.318Z,6.77
2017-10-30T01:17:17.723Z,7.33
2017-10-30T01:19:45.135Z,7.43
2017-10-30T01:22:12.554Z,7.00
2017-10-30T01:24:40.731Z,7.50
2017-10-30T01:27:08.138Z,7.37
2017-10-30T01:29:35.549Z,7.10
2017-10-30T01:32:02.970Z,8.20
2017-10-30T01:34:30.379Z,7.20
2017-10-30T01:36:57.790Z,8.80
2017-10-30T01:39:25.974Z,6.97
2017-10-30T01:41:54.162Z,7.60
2017-10-30T01:44:21.576Z,8.33
2017-10-30T01:46:48.990Z,6.33
2017-10-30T01:49:16.401Z,7.30
2017-10-30T01:51:43.908Z,7.70
2017-10-30T01:54:11.318Z,6.70
2017-10-30T01:56:39.502Z,7.73
2017-10-30T01:59:07.679Z,7.57
2017-10-30T02:01:35.867Z,7.57
2017-10-30T02:04:03.266Z,8.20
2017-10-30T02:06:30.704Z,7.27
2017-10-30T02:08:58.103Z,6.80
2017-10-30T02:11:25.523Z,9.40
2017-10-30T02:13:52.935Z,7.30
2017-10-30T02:16:28.416Z,7.30
2017-10-30T02:18:55.817Z,6.67
2017-10-30T02:21:24.041Z,6.53
2017-10-30T02:23:51.446Z,8.97
2017-10-30T02:26:19.633Z,7.20
2017-10-30T02:28:47.806Z,8.23
2017-10-30T02:31:15.979Z,8.10
2017-10-30T02:33:44.156Z,7.93
2017-10-30T02:36:12.346Z,6.87
2017-10-30T02:38:39.770Z,8.73
2017-10-30T02:41:07.189Z,5.83
2017-10-30T02:43:34.597Z,6.70
2017-10-30T02:46:02.767Z,6.80
2017-10-30T02:48:30.950Z,7.60
2017-10-30T02:50:59.132Z,7.97
2017-10-30T02:53:27.319Z,6.33
2017-10-30T02:55:54.722Z,7.50
2017-10-30T02:58:22.143Z,8.10
2017-10-30T03:00:49.550Z,9.80
2017-10-30T03:03:16.966Z,7.70
2017-10-30T03:05:44.390Z,8.40
2017-10-30T03:08:11.808Z,8.00
2017-10-30T03:10:39.205Z,8.77
2017-10-30T03:13:06.625Z,7.07
2017-10-30T03:15:34.032Z,6.03
2017-10-30T03:18:01.444Z,8.03
2017-10-30T03:20:28.851Z,8.70
2017-10-30T03:22:56.271Z,8.37
2017-10-30T03:25:24.444Z,8.37
2017-10-30T03:27:52.626Z,9.63
2017-10-30T03:30:20.045Z,8.40
2017-10-30T03:32:48.669Z,9.10
2017-10-30T03:35:16.074Z,8.77
2017-10-30T03:37:43.500Z,10.33
2017-10-30T03:40:10.956Z,8.43
2017-10-30T03:42:38.368Z,8.40
2017-10-30T03:45:05.773Z,7.70
2017-10-30T03:47:33.190Z,9.50
2017-10-30T03:50:01.366Z,8.87
2017-10-30T03:52:30.392Z,7.03
2017-10-30T03:54:57.798Z,9.63
2017-10-30T03:57:25.978Z,8.30
2017-10-30T03:59:54.166Z,7.70
2017-10-30T04:02:22.349Z,8.30
2017-10-30T04:04:50.526Z,6.47
2017-10-30T04:07:17.934Z,7.67
2017-10-30T04:09:45.355Z,7.63
2017-10-30T04:12:12.758Z,7.60
2017-10-30T04:14:40.173Z,7.97
2017-10-30T04:17:07.578Z,5.90
2017-10-30T04:19:35.765Z,7.67
2017-10-30T04:22:03.960Z,8.37
2017-10-30T04:24:31.378Z,7.90
2017-10-30T04:26:59.546Z,7.57
2017-10-30T04:29:26.974Z,7.63
2017-10-30T04:31:54.387Z,7.67
2017-10-30T04:34:21.798Z,7.83
2017-10-30T04:36:49.224Z,7.53
2017-10-30T04:39:16.630Z,7.50
2017-10-30T04:41:44.056Z,8.00
2017-10-30T04:44:11.462Z,8.30
2017-10-30T04:46:39.646Z,8.03
2017-10-30T04:49:07.829Z,8.93
2017-10-30T04:51:35.226Z,9.20
2017-10-30T04:54:02.638Z,5.67
2017-10-30T04:56:30.050Z,7.50
2017-10-30T04:58:57.470Z,7.10
2017-10-30T05:01:24.886Z,8.30
2017-10-30T05:03:53.070Z,7.10
2017-10-30T05:06:20.486Z,7.87
2017-10-30T05:08:47.889Z,9.80
2017-10-30T05:11:15.305Z,8.37
2017-10-30T05:13:42.721Z,10.33
2017-10-30T05:16:10.998Z,5.93
2017-10-30T05:18:38.407Z,7.57
2017-10-30T05:21:06.582Z,8.10
2017-10-30T05:23:34.758Z,8.50
2017-10-30T05:26:02.935Z,9.20
2017-10-30T05:28:31.119Z,9.30
2017-10-30T05:30:59.302Z,6.90
2017-10-30T05:33:26.714Z,8.47
2017-10-30T05:35:54.123Z,9.47
2017-10-30T05:38:21.547Z,10.40
2017-10-30T05:40:48.946Z,9.90
2017-10-30T05:43:16.358Z,9.70
2017-10-30T05:45:44.534Z,8.83
2017-10-30T05:48:12.714Z,8.37
2017-10-30T05:50:40.895Z,10.77
2017-10-30T05:53:08.311Z,8.90
2017-10-30T05:55:37.223Z,8.57
2017-10-30T05:58:05.406Z,9.70
2017-10-30T06:00:33.586Z,9.00
2017-10-30T06:03:01.793Z,9.27
2017-10-30T06:05:29.190Z,8.67
2017-10-30T06:07:58.114Z,8.97
2017-10-30T06:10:25.531Z,9.40
2017-10-30T06:12:52.947Z,10.07
2017-10-30T06:15:20.362Z,8.17
2017-10-30T06:17:48.533Z,9.70
2017-10-30T06:20:16.718Z,9.47
2017-10-30T06:22:44.898Z,9.20
2017-10-30T06:25:13.090Z,8.50
2017-10-30T06:27:40.555Z,10.40
2017-10-30T06:30:07.959Z,8.93
2017-10-30T06:32:35.378Z,9.07
2017-10-30T06:35:02.824Z,9.33
2017-10-30T06:37:30.239Z,10.13
2017-10-30T06:39:58.418Z,9.00
2017-10-30T06:42:26.603Z,9.23
2017-10-30T06:44:54.786Z,9.30
2017-10-30T06:47:22.250Z,8.43
2017-10-30T06:49:49.666Z,8.70
2017-10-30T06:52:17.082Z,9.00
2017-10-30T06:54:44.494Z,8.93
2017-10-30T06:57:12.686Z,9.97
2017-10-30T06:59:40.090Z,7.87
2017-10-30T07:02:07.502Z,7.30
2017-10-30T07:04:34.914Z,7.13
2017-10-30T07:07:03.835Z,7.77
2017-10-30T07:09:31.260Z,9.00
2017-10-30T07:11:58.671Z,6.80
2017-10-30T07:14:26.129Z,9.50
2017-10-30T07:16:53.563Z,9.07
2017-10-30T07:19:20.970Z,9.77
2017-10-30T07:21:48.378Z,9.57
2017-10-30T07:24:15.794Z,8.93
2017-10-30T07:26:43.198Z,8.97
2017-10-30T07:29:10.621Z,9.70
2017-10-30T07:31:38.786Z,9.33
2017-10-30T07:34:07.714Z,8.10
2017-10-30T07:36:35.122Z,8.47
2017-10-30T07:39:02.542Z,8.10
2017-10-30T07:41:29.956Z,8.73
2017-10-30T07:43:58.150Z,6.67
2017-10-30T07:46:25.550Z,7.50
2017-10-30T07:48:52.970Z,7.90
2017-10-30T07:51:20.385Z,6.17
2017-10-30T07:53:48.648Z,7.00
2017-10-30T07:56:16.058Z,7.60
2017-10-30T07:58:43.527Z,7.00
2017-10-30T08:01:10.942Z,7.80
2017-10-30T08:03:39.114Z,6.80
2017-10-30T08:06:08.033Z,7.27
2017-10-30T08:08:35.438Z,8.03
2017-10-30T08:11:02.860Z,5.97
2017-10-30T08:13:30.305Z,7.87
2017-10-30T08:15:57.722Z,7.70
2017-10-30T08:18:25.133Z,7.50
2017-10-30T08:20:52.547Z,6.33
2017-10-30T08:23:20.730Z,6.40
2017-10-30T08:25:48.919Z,6.43
2017-10-30T08:28:16.322Z,7.30
2017-10-30T08:30:43.734Z,6.43
2017-10-30T08:33:11.155Z,7.67
2017-10-30T08:35:38.570Z,7.10
2017-10-30T08:38:05.978Z,6.90
2017-10-30T08:40:34.159Z,8.13
2017-10-30T08:43:02.338Z,6.50
2017-10-30T08:45:30.522Z,6.43
2017-10-30T08:47:57.938Z,6.77
2017-10-30T08:50:25.351Z,7.07
2017-10-30T08:52:52.777Z,6.10
2017-10-30T08:55:20.950Z,7.80
2017-10-30T08:57:49.134Z,7.43
2017-10-30T09:00:16.546Z,7.50
2017-10-30T09:02:43.967Z,7.60
2017-10-30T09:05:11.369Z,5.90
2017-10-30T09:07:38.802Z,6.67
2017-10-30T09:10:06.190Z,6.50
2017-10-30T09:12:34.374Z,7.40
2017-10-30T09:15:02.556Z,7.63
2017-10-30T09:17:29.994Z,5.83
2017-10-30T09:19:57.400Z,6.90
2017-10-30T09:22:24.802Z,6.33
2017-10-30T09:24:52.220Z,6.17
2017-10-30T09:27:19.634Z,6.80
2017-10-30T09:29:47.822Z,6.80
2017-10-30T09:32:15.226Z,5.23
2017-10-30T09:34:42.643Z,6.40
2017-10-30T09:37:10.046Z,8.20
2017-10-30T09:39:37.471Z,6.10
2017-10-30T09:42:05.641Z,6.87
2017-10-30T09:44:33.070Z,6.63
2017-10-30T09:47:00.478Z,6.60
2017-10-30T09:49:28.078Z,6.73
2017-10-30T09:51:55.491Z,6.37
2017-10-30T09:54:22.914Z,6.27
2017-10-30T09:56:50.322Z,5.83
2017-10-30T09:59:17.749Z,6.50
2017-10-30T10:01:45.165Z,4.80
2017-10-30T10:04:12.562Z,6.60
2017-10-30T10:06:39.978Z,5.20
2017-10-30T10:09:07.389Z,5.50
2017-10-30T10:11:34.803Z,6.17
2017-10-30T10:14:02.217Z,6.20
2017-10-30T10:16:29.659Z,5.20
2017-10-30T10:18:57.265Z,5.77
2017-10-30T10:21:24.738Z,6.10
2017-10-30T10:23:52.738Z,6.17
2017-10-30T10:26:20.151Z,5.50
2017-10-30T10:28:47.646Z,5.07
2017-10-30T10:31:15.082Z,5.57
2017-10-30T10:33:42.493Z,4.30
2017-10-30T10:36:10.666Z,5.27
2017-10-30T10:38:38.854Z,4.73
2017-10-30T10:41:06.272Z,4.80
2017-10-30T10:43:33.694Z,5.20
2017-10-30T10:46:01.462Z,4.80
2017-10-30T10:48:29.294Z,4.90
2017-10-30T10:50:57.483Z,5.80
2017-10-30T10:53:25.646Z,5.27
2017-10-30T10:55:53.054Z,4.90
2017-10-30T10:58:20.998Z,4.13
2017-10-30T11:00:48.414Z,5.83
2017-10-30T11:03:16.598Z,4.40
2017-10-30T11:05:44.779Z,4.30
2017-10-30T11:08:12.206Z,3.77
2017-10-30T11:10:39.612Z,4.73
2017-10-30T11:13:07.091Z,3.70
2017-10-30T11:15:34.536Z,4.47
2017-10-30T11:18:01.950Z,3.73
2017-10-30T11:20:30.125Z,4.63
2017-10-30T11:22:57.559Z,4.00
2017-10-30T11:25:24.979Z,3.73
2017-10-30T11:27:52.391Z,4.07
2017-10-30T11:30:20.583Z,5.50
2017-10-30T11:32:48.003Z,5.27
2017-10-30T11:35:15.405Z,4.50
2017-10-30T11:37:42.814Z,3.90
2017-10-30T11:40:10.234Z,4.33
2017-10-30T11:42:38.405Z,4.23
2017-10-30T11:45:05.822Z,4.23
2017-10-30T11:47:33.238Z,4.47
2017-10-30T11:50:00.645Z,4.00
2017-10-30T11:52:28.062Z,4.27
2017-10-30T11:54:55.533Z,4.20
2017-10-30T11:57:22.940Z,3.97
2017-10-30T11:59:50.360Z,3.90
2017-10-30T12:02:17.782Z,3.40
2017-10-30T12:04:45.202Z,3.43
2017-10-30T12:07:13.375Z,3.20
2017-10-30T12:09:40.802Z,3.77
2017-10-30T12:12:08.214Z,3.63
2017-10-30T12:14:36.341Z,3.80
2017-10-30T12:17:03.747Z,3.47
2017-10-30T12:19:31.172Z,2.80
2017-10-30T12:21:58.586Z,3.13
2017-10-30T12:24:26.781Z,3.00
2017-10-30T12:26:54.198Z,3.17
2017-10-30T12:29:21.618Z,3.60
2017-10-30T12:31:49.038Z,3.90
2017-10-30T12:34:17.228Z,3.53
2017-10-30T12:36:44.634Z,3.00
2017-10-30T12:39:12.052Z,2.83
2017-10-30T12:41:39.475Z,3.43
2017-10-30T12:44:07.654Z,3.20
2017-10-30T12:46:35.850Z,2.90
2017-10-30T12:49:03.258Z,3.30
2017-10-30T12:51:30.682Z,3.83
2017-10-30T12:53:58.162Z,3.73
2017-10-30T12:56:25.586Z,4.33
2017-10-30T12:58:53.004Z,5.27
2017-10-30T13:01:21.194Z,4.07
2017-10-30T13:03:48.678Z,3.40
2017-10-30T13:06:16.106Z,3.90
2017-10-30T13:08:43.519Z,5.00
2017-10-30T13:11:10.967Z,4.90
2017-10-30T13:13:38.375Z,4.10
2017-10-30T13:16:05.791Z,3.90
2017-10-30T13:18:33.211Z,5.27
2017-10-30T13:21:00.623Z,3.90
2017-10-30T13:23:28.872Z,4.03
2017-10-30T13:25:56.293Z,4.07
2017-10-30T13:28:23.709Z,4.50
2017-10-30T13:30:51.900Z,5.03
2017-10-30T13:33:20.086Z,6.70
2017-10-30T13:35:47.490Z,4.17
2017-10-30T13:38:14.934Z,3.60
2017-10-30T13:40:42.354Z,6.30
2017-10-30T13:43:10.635Z,4.37
2017-10-30T13:45:38.142Z,3.30
2017-10-30T13:48:05.562Z,4.00
2017-10-30T13:50:32.979Z,3.83
2017-10-30T13:53:01.162Z,3.70
2017-10-30T13:55:28.591Z,5.07
2017-10-30T13:57:56.004Z,3.97
2017-10-30T14:00:23.673Z,7.27
2017-10-30T14:02:51.070Z,4.00
2017-10-30T14:05:18.496Z,3.30
2017-10-30T14:07:45.914Z,4.10
2017-10-30T14:10:13.344Z,3.67
2017-10-30T14:12:40.754Z,3.60
2017-10-30T14:15:08.631Z,3.40
2017-10-30T14:17:36.069Z,3.60
2017-10-30T14:20:03.491Z,2.50
2017-10-30T14:22:31.679Z,2.50
2017-10-30T14:24:59.111Z,3.60
2017-10-30T14:27:35.944Z,2.90
2017-10-30T14:30:03.366Z,2.53
2017-10-30T14:32:30.786Z,2.93
2017-10-30T14:34:58.191Z,3.17
2017-10-30T14:37:25.634Z,2.37
2017-10-30T14:39:53.055Z,2.80
2017-10-30T14:42:20.469Z,3.03
2017-10-30T14:44:47.894Z,2.50
2017-10-30T14:47:15.318Z,4.10
2017-10-30T14:49:42.746Z,3.73
2017-10-30T14:52:10.153Z,3.43
2017-10-30T14:54:38.354Z,3.90
2017-10-30T14:57:05.745Z,3.40
2017-10-30T14:59:33.172Z,2.83
2017-10-30T15:02:01.355Z,3.63
2017-10-30T15:04:28.775Z,2.93
2017-10-30T15:06:56.966Z,2.93
2017-10-30T15:09:24.389Z,2.87
2017-10-30T15:11:51.808Z,3.10
2017-10-30T15:14:19.238Z,3.30
2017-10-30T15:16:46.649Z,3.17
2017-10-30T15:19:14.078Z,2.80
2017-10-30T15:21:41.496Z,2.93
2017-10-30T15:24:09.670Z,3.17
2017-10-30T15:26:37.099Z,3.10
2017-10-30T15:29:04.544Z,3.30
2017-10-30T15:31:31.976Z,2.80
2017-10-30T15:33:59.404Z,3.30
2017-10-30T15:36:26.848Z,4.43
2017-10-30T15:38:55.287Z,3.53
2017-10-30T15:41:22.751Z,3.23
2017-10-30T15:43:50.186Z,4.03
2017-10-30T15:46:17.626Z,3.73
2017-10-30T15:48:45.107Z,3.57
2017-10-30T15:51:12.536Z,3.27
2017-10-30T15:53:39.976Z,3.13
2017-10-30T15:56:07.410Z,3.20
2017-10-30T15:58:35.596Z,3.03
2017-10-30T16:01:03.045Z,3.13
2017-10-30T16:03:31.254Z,3.60
2017-10-30T16:05:58.720Z,3.33
2017-10-30T16:08:26.114Z,4.07
2017-10-30T16:10:53.526Z,3.53
2017-10-30T16:13:20.934Z,4.13
2017-10-30T16:15:49.133Z,3.50
2017-10-30T16:18:16.540Z,3.77
2017-10-30T16:20:43.950Z,3.70
2017-10-30T16:23:11.379Z,4.70
2017-10-30T16:25:38.780Z,4.53
2017-10-30T16:28:06.194Z,3.67
2017-10-30T16:30:34.388Z,4.17
2017-10-30T16:33:01.782Z,3.50
2017-10-30T16:35:29.196Z,3.90
2017-10-30T16:37:56.598Z,4.13
2017-10-30T16:40:24.020Z,4.50
2017-10-30T16:42:51.439Z,4.30
2017-10-30T16:45:18.858Z,3.50
2017-10-30T16:47:46.264Z,4.10
2017-10-30T16:50:14.446Z,3.87
2017-10-30T16:52:42.619Z,3.53
2017-10-30T16:55:10.798Z,3.87
2017-10-30T16:57:38.206Z,3.70
2017-10-30T17:00:05.617Z,3.63
2017-10-30T17:02:33.023Z,5.00
2017-10-30T17:05:00.446Z,3.70
2017-10-30T17:07:27.837Z,3.60
2017-10-30T17:09:55.253Z,3.73
2017-10-30T17:12:22.714Z,3.83
2017-10-30T17:14:50.114Z,3.70
2017-10-30T17:17:17.526Z,4.53
2017-10-30T17:19:44.929Z,4.10
2017-10-30T17:22:12.340Z,4.13
2017-10-30T17:24:39.760Z,3.97
2017-10-30T17:27:07.927Z,3.83
2017-10-30T17:29:36.116Z,4.90
2017-10-30T17:35:10.368Z,4.03
2017-10-30T17:37:37.755Z,3.83
2017-10-30T17:40:05.177Z,3.53
2017-10-30T17:42:32.583Z,3.80
2017-10-30T17:45:00.000Z,4.13
2017-10-30T17:47:27.398Z,4.50
2017-10-30T17:49:54.802Z,4.20
2017-10-30T17:52:22.218Z,4.70
2017-10-30T17:54:50.410Z,4.10
2017-10-30T17:57:18.634Z,4.53
2017-10-30T17:59:46.050Z,4.23
2017-10-30T18:02:13.457Z,4.70
2017-10-30T18:04:41.371Z,5.03
2017-10-30T18:07:08.783Z,4.30
2017-10-30T18:09:36.194Z,4.10
2017-10-30T18:12:03.606Z,4.87
2017-10-30T18:14:31.010Z,4.00
2017-10-30T18:16:58.425Z,4.63
2017-10-30T18:19:26.602Z,4.23
2017-10-30T18:22:00.389Z,4.77
2017-10-30T18:24:27.810Z,5.37
2017-10-30T18:26:55.237Z,5.73
2017-10-30T18:29:23.409Z,5.33
2017-10-30T18:31:50.821Z,5.17
2017-10-30T18:34:18.277Z,4.73
2017-10-30T18:36:45.686Z,4.90
2017-10-30T18:39:13.269Z,4.77
2017-10-30T18:41:40.708Z,4.77
2017-10-30T18:44:08.114Z,5.30
2017-10-30T18:46:36.366Z,4.83
2017-10-30T18:49:03.767Z,5.67
2017-10-30T18:51:31.930Z,4.47
2017-10-30T18:53:59.444Z,4.23
2017-10-30T18:56:26.846Z,4.97
2017-10-30T18:58:55.045Z,4.20
2017-10-30T19:01:22.453Z,4.60
2017-10-30T19:03:49.861Z,4.80
2017-10-30T19:06:17.275Z,4.33
2017-10-30T19:08:44.682Z,4.53
2017-10-30T19:11:12.097Z,4.17
2017-10-30T19:13:40.270Z,4.77
2017-10-30T19:16:08.441Z,4.70
2017-10-30T19:18:35.852Z,4.87
2017-10-30T19:21:03.258Z,4.80
2017-10-30T19:23:31.530Z,4.40
2017-10-30T19:25:58.939Z,4.67
2017-10-30T19:28:26.353Z,5.57
2017-10-30T19:30:54.521Z,4.27
2017-10-30T19:33:22.758Z,4.20
2017-10-30T19:35:50.193Z,5.30
2017-10-30T19:38:17.606Z,5.37
2017-10-30T19:40:46.521Z,5.40
2017-10-30T19:43:14.723Z,5.33
2017-10-30T19:45:42.126Z,5.00
2017-10-30T19:48:10.306Z,4.63
2017-10-30T19:50:38.482Z,5.23
2017-10-30T19:53:05.904Z,4.60
2017-10-30T19:55:33.306Z,5.37
2017-10-30T19:58:01.562Z,5.03
2017-10-30T20:00:29.065Z,5.20
2017-10-30T20:02:56.486Z,6.17
2017-10-30T20:05:30.585Z,6.60
2017-10-30T20:07:58.002Z,6.87
2017-10-30T20:10:30.977Z,6.20
2017-10-30T20:12:58.434Z,6.03
2017-10-30T20:15:25.848Z,5.50
2017-10-30T20:17:54.788Z,5.43
2017-10-30T20:20:22.193Z,6.87
2017-10-30T20:22:49.700Z,6.10
2017-10-30T20:25:17.154Z,5.17
2017-10-30T20:27:44.564Z,5.50
2017-10-30T20:30:12.734Z,7.40
2017-10-30T20:32:40.165Z,6.13
2017-10-30T20:35:07.561Z,5.37
2017-10-30T20:37:35.729Z,6.00
2017-10-30T20:40:03.941Z,5.70
2017-10-30T20:42:31.358Z,6.50
2017-10-30T20:44:59.578Z,5.07
2017-10-30T20:47:26.982Z,4.60
2017-10-30T20:49:55.162Z,7.03
2017-10-30T20:52:22.670Z,7.40
2017-10-30T20:54:51.059Z,5.27
2017-10-30T20:57:18.462Z,5.73
2017-10-30T20:59:46.650Z,5.63
2017-10-30T21:02:14.820Z,3.90
2017-10-30T21:04:43.002Z,4.93
2017-10-30T21:07:10.407Z,4.90
2017-10-30T21:09:37.842Z,3.93
2017-10-30T21:12:05.250Z,5.77
2017-10-30T21:14:33.475Z,5.30
2017-10-30T21:17:00.885Z,5.43
2017-10-30T21:19:29.060Z,5.77
2017-10-30T21:21:57.234Z,4.70
2017-10-30T21:24:25.402Z,6.07
2017-10-30T21:26:53.577Z,5.80
2017-10-30T21:29:21.786Z,5.83
2017-10-30T21:31:49.195Z,5.43
2017-10-30T21:34:16.704Z,5.07
2017-10-30T21:36:44.114Z,5.47
2017-10-30T21:39:12.289Z,5.00
2017-10-30T21:41:40.477Z,5.83
2017-10-30T21:44:08.713Z,6.10
2017-10-30T21:46:36.101Z,6.67
2017-10-30T21:49:04.281Z,6.07
2017-10-30T21:51:32.465Z,5.30
2017-10-30T21:54:00.638Z,5.20
2017-10-30T21:56:28.047Z,5.30
2017-10-30T21:58:55.462Z,6.70
2017-10-30T22:01:22.874Z,5.70
2017-10-30T22:03:51.794Z,5.87
2017-10-30T22:06:19.205Z,6.07
2017-10-30T22:08:46.630Z,6.57
2017-10-30T22:11:14.039Z,6.70
2017-10-30T22:13:42.302Z,7.17
2017-10-30T22:16:10.474Z,8.70
2017-10-30T22:18:37.994Z,7.80
2017-10-30T22:21:05.398Z,6.67
2017-10-30T22:23:34.322Z,6.27
2017-10-30T22:26:02.070Z,7.93
2017-10-30T22:28:30.254Z,6.73
2017-10-30T22:30:58.429Z,7.50
2017-10-30T22:33:27.133Z,8.87
2017-10-30T22:35:54.551Z,7.47
2017-10-30T22:38:22.721Z,7.33
2017-10-30T22:40:50.944Z,7.03
2017-10-30T22:43:18.400Z,6.67
2017-10-30T22:45:45.825Z,8.10
2017-10-30T22:48:13.998Z,10.30
2017-10-30T22:50:42.186Z,8.73
2017-10-30T22:53:09.598Z,8.83
2017-10-30T22:55:37.017Z,6.60
2017-10-30T22:58:04.470Z,7.90
2017-10-30T23:00:31.881Z,9.03
2017-10-30T23:03:00.062Z,7.97
2017-10-30T23:05:28.253Z,7.47
2017-10-30T23:07:56.418Z,7.80
2017-10-30T23:10:24.825Z,8.17
2017-10-30T23:12:52.307Z,8.03
2017-10-30T23:15:19.731Z,7.70
2017-10-30T23:17:47.141Z,8.00
2017-10-30T23:20:14.555Z,8.07
2017-10-30T23:22:42.017Z,9.40
2017-10-30T23:25:09.427Z,11.03
2017-10-30T23:27:37.613Z,9.27
2017-10-30T23:30:05.798Z,8.70
2017-10-30T23:32:33.222Z,8.90
2017-10-30T23:35:00.614Z,8.47
2017-10-30T23:37:28.031Z,11.70
2017-10-30T23:39:55.544Z,10.60
2017-10-30T23:42:22.965Z,9.80
2017-10-30T23:44:51.133Z,9.80
2017-10-30T23:47:19.326Z,10.60
2017-10-30T23:49:46.746Z,9.97
2017-10-30T23:52:14.163Z,10.23
2017-10-30T23:54:41.574Z,10.40
2017-10-30T23:57:09.759Z,11.77
2017-10-30T23:59:37.927Z,9.93
